sensor_id;sensor_type;location;lat;lon;timestamp;P1;durP1;ratioP1;P2;durP2;ratioP2
75655;SDS011;64252;51.094;13.714;2023-06-22T00:01:12;8.43;;;6.07;;
75655;SDS011;64252;51.094;13.714;2023-06-22T00:03:37;9.45;;;7.07;;
75655;SDS011;64252;51.094;13.714;2023-06-22T00:06:03;9.32;;;6.53;;
75655;SDS011;64252;51.094;13.714;2023-06-22T00:08:28;10.65;;;7.25;;
75655;SDS011;64252;51.094;13.714;2023-06-22T00:10:54;11.43;;;7.32;;
75655;SDS011;64252;51.094;13.714;2023-06-22T00:13:19;10.95;;;7.20;;
75655;SDS011;64252;51.094;13.714;2023-06-22T00:15:45;10.05;;;7.13;;
75655;SDS011;64252;51.094;13.714;2023-06-22T00:18:10;9.90;;;7.45;;
75655;SDS011;64252;51.094;13.714;2023-06-22T00:20:38;9.73;;;7.28;;
75655;SDS011;64252;51.094;13.714;2023-06-22T00:23:04;8.93;;;7.10;;
75655;SDS011;64252;51.094;13.714;2023-06-22T00:25:39;10.38;;;7.10;;
75655;SDS011;64252;51.094;13.714;2023-06-22T00:28:05;12.63;;;7.70;;
75655;SDS011;64252;51.094;13.714;2023-06-22T00:30:34;12.25;;;7.32;;
75655;SDS011;64252;51.094;13.714;2023-06-22T00:32:59;8.80;;;7.05;;
75655;SDS011;64252;51.094;13.714;2023-06-22T00:35:26;10.35;;;7.00;;
75655;SDS011;64252;51.094;13.714;2023-06-22T00:37:57;9.68;;;7.50;;
75655;SDS011;64252;51.094;13.714;2023-06-22T00:40:28;10.73;;;7.45;;
75655;SDS011;64252;51.094;13.714;2023-06-22T00:42:56;10.25;;;7.15;;
75655;SDS011;64252;51.094;13.714;2023-06-22T00:45:23;11.40;;;7.50;;
75655;SDS011;64252;51.094;13.714;2023-06-22T00:47:52;10.23;;;7.25;;
75655;SDS011;64252;51.094;13.714;2023-06-22T00:50:22;10.38;;;7.55;;
75655;SDS011;64252;51.094;13.714;2023-06-22T00:52:53;10.40;;;7.47;;
75655;SDS011;64252;51.094;13.714;2023-06-22T00:55:21;8.80;;;6.28;;
75655;SDS011;64252;51.094;13.714;2023-06-22T00:57:47;11.55;;;6.47;;
75655;SDS011;64252;51.094;13.714;2023-06-22T01:00:16;8.45;;;6.45;;
75655;SDS011;64252;51.094;13.714;2023-06-22T01:02:44;11.13;;;7.50;;
75655;SDS011;64252;51.094;13.714;2023-06-22T01:05:14;10.63;;;7.25;;
75655;SDS011;64252;51.094;13.714;2023-06-22T01:16:26;9.40;;;6.97;;
75655;SDS011;64252;51.094;13.714;2023-06-22T01:18:55;12.50;;;7.93;;
75655;SDS011;64252;51.094;13.714;2023-06-22T01:21:28;11.23;;;7.85;;
75655;SDS011;64252;51.094;13.714;2023-06-22T01:29:30;9.90;;;6.78;;
75655;SDS011;64252;51.094;13.714;2023-06-22T01:31:58;8.70;;;6.60;;
75655;SDS011;64252;51.094;13.714;2023-06-22T01:34:27;10.98;;;7.78;;
75655;SDS011;64252;51.094;13.714;2023-06-22T01:36:55;10.30;;;7.70;;
75655;SDS011;64252;51.094;13.714;2023-06-22T01:39:24;9.00;;;7.13;;
75655;SDS011;64252;51.094;13.714;2023-06-22T01:41:51;10.43;;;8.10;;
75655;SDS011;64252;51.094;13.714;2023-06-22T01:44:19;14.43;;;9.07;;
75655;SDS011;64252;51.094;13.714;2023-06-22T01:46:46;10.93;;;8.30;;
75655;SDS011;64252;51.094;13.714;2023-06-22T01:49:14;11.52;;;8.68;;
75655;SDS011;64252;51.094;13.714;2023-06-22T01:51:40;11.25;;;8.82;;
75655;SDS011;64252;51.094;13.714;2023-06-22T01:54:06;11.32;;;8.55;;
75655;SDS011;64252;51.094;13.714;2023-06-22T01:56:33;12.15;;;8.90;;
75655;SDS011;64252;51.094;13.714;2023-06-22T01:59:02;14.35;;;8.55;;
75655;SDS011;64252;51.094;13.714;2023-06-22T02:01:49;9.82;;;7.70;;
75655;SDS011;64252;51.094;13.714;2023-06-22T02:04:24;12.75;;;8.15;;
75655;SDS011;64252;51.094;13.714;2023-06-22T02:06:56;9.95;;;8.00;;
75655;SDS011;64252;51.094;13.714;2023-06-22T02:09:25;11.95;;;8.65;;
75655;SDS011;64252;51.094;13.714;2023-06-22T02:11:54;10.90;;;8.18;;
75655;SDS011;64252;51.094;13.714;2023-06-22T02:14:22;10.50;;;8.35;;
75655;SDS011;64252;51.094;13.714;2023-06-22T02:16:49;11.38;;;8.55;;
75655;SDS011;64252;51.094;13.714;2023-06-22T02:19:16;10.32;;;8.57;;
75655;SDS011;64252;51.094;13.714;2023-06-22T02:21:44;13.45;;;9.38;;
75655;SDS011;64252;51.094;13.714;2023-06-22T02:24:12;10.50;;;8.25;;
75655;SDS011;64252;51.094;13.714;2023-06-22T02:26:37;12.75;;;9.75;;
75655;SDS011;64252;51.094;13.714;2023-06-22T02:29:05;12.38;;;9.10;;
75655;SDS011;64252;51.094;13.714;2023-06-22T02:31:30;11.75;;;8.35;;
75655;SDS011;64252;51.094;13.714;2023-06-22T02:33:59;11.02;;;8.95;;
75655;SDS011;64252;51.094;13.714;2023-06-22T02:36:26;12.23;;;8.65;;
75655;SDS011;64252;51.094;13.714;2023-06-22T02:38:56;11.98;;;8.50;;
75655;SDS011;64252;51.094;13.714;2023-06-22T02:41:24;11.90;;;8.45;;
75655;SDS011;64252;51.094;13.714;2023-06-22T02:43:49;13.68;;;9.20;;
75655;SDS011;64252;51.094;13.714;2023-06-22T02:48:44;13.30;;;8.75;;
75655;SDS011;64252;51.094;13.714;2023-06-22T02:51:09;12.52;;;9.30;;
75655;SDS011;64252;51.094;13.714;2023-06-22T02:53:36;14.45;;;8.90;;
75655;SDS011;64252;51.094;13.714;2023-06-22T02:56:02;13.88;;;9.38;;
75655;SDS011;64252;51.094;13.714;2023-06-22T02:58:34;14.70;;;9.30;;
75655;SDS011;64252;51.094;13.714;2023-06-22T03:01:07;12.02;;;8.70;;
75655;SDS011;64252;51.094;13.714;2023-06-22T03:03:34;14.27;;;9.77;;
75655;SDS011;64252;51.094;13.714;2023-06-22T03:05:59;13.10;;;9.60;;
75655;SDS011;64252;51.094;13.714;2023-06-22T03:08:28;11.70;;;9.73;;
75655;SDS011;64252;51.094;13.714;2023-06-22T03:10:55;15.32;;;10.18;;
75655;SDS011;64252;51.094;13.714;2023-06-22T03:13:21;13.93;;;9.25;;
75655;SDS011;64252;51.094;13.714;2023-06-22T03:15:47;11.07;;;8.52;;
75655;SDS011;64252;51.094;13.714;2023-06-22T03:18:12;11.35;;;9.13;;
75655;SDS011;64252;51.094;13.714;2023-06-22T03:20:38;11.35;;;8.80;;
75655;SDS011;64252;51.094;13.714;2023-06-22T03:23:04;13.35;;;9.27;;
75655;SDS011;64252;51.094;13.714;2023-06-22T03:25:31;12.82;;;9.75;;
75655;SDS011;64252;51.094;13.714;2023-06-22T03:30:26;10.38;;;8.40;;
75655;SDS011;64252;51.094;13.714;2023-06-22T03:32:51;12.48;;;9.57;;
75655;SDS011;64252;51.094;13.714;2023-06-22T03:35:17;12.82;;;9.18;;
75655;SDS011;64252;51.094;13.714;2023-06-22T03:37:43;11.52;;;9.00;;
75655;SDS011;64252;51.094;13.714;2023-06-22T03:40:08;13.55;;;8.88;;
75655;SDS011;64252;51.094;13.714;2023-06-22T03:42:34;13.63;;;9.77;;
75655;SDS011;64252;51.094;13.714;2023-06-22T03:45:03;10.85;;;8.05;;
75655;SDS011;64252;51.094;13.714;2023-06-22T03:47:29;12.38;;;8.75;;
75655;SDS011;64252;51.094;13.714;2023-06-22T03:49:56;12.07;;;9.00;;
75655;SDS011;64252;51.094;13.714;2023-06-22T03:52:22;12.30;;;9.45;;
75655;SDS011;64252;51.094;13.714;2023-06-22T03:54:48;12.40;;;9.00;;
75655;SDS011;64252;51.094;13.714;2023-06-22T03:57:13;11.27;;;8.48;;
75655;SDS011;64252;51.094;13.714;2023-06-22T03:59:39;11.65;;;8.25;;
75655;SDS011;64252;51.094;13.714;2023-06-22T04:02:04;12.57;;;9.00;;
75655;SDS011;64252;51.094;13.714;2023-06-22T04:04:30;12.88;;;8.73;;
75655;SDS011;64252;51.094;13.714;2023-06-22T04:06:56;11.00;;;7.85;;
75655;SDS011;64252;51.094;13.714;2023-06-22T04:09:21;15.23;;;8.00;;
75655;SDS011;64252;51.094;13.714;2023-06-22T04:11:47;9.32;;;7.30;;
75655;SDS011;64252;51.094;13.714;2023-06-22T04:14:13;13.90;;;9.07;;
75655;SDS011;64252;51.094;13.714;2023-06-22T04:16:38;12.40;;;9.85;;
75655;SDS011;64252;51.094;13.714;2023-06-22T04:19:04;12.00;;;8.80;;
75655;SDS011;64252;51.094;13.714;2023-06-22T04:21:29;14.18;;;8.18;;
75655;SDS011;64252;51.094;13.714;2023-06-22T04:23:55;11.70;;;8.07;;
75655;SDS011;64252;51.094;13.714;2023-06-22T04:26:20;11.38;;;8.85;;
75655;SDS011;64252;51.094;13.714;2023-06-22T04:28:46;12.07;;;8.27;;
75655;SDS011;64252;51.094;13.714;2023-06-22T04:31:17;10.52;;;7.50;;
75655;SDS011;64252;51.094;13.714;2023-06-22T04:33:44;13.90;;;9.15;;
75655;SDS011;64252;51.094;13.714;2023-06-22T04:36:10;12.60;;;9.05;;
75655;SDS011;64252;51.094;13.714;2023-06-22T04:38:38;16.08;;;9.05;;
75655;SDS011;64252;51.094;13.714;2023-06-22T04:41:04;12.80;;;8.90;;
75655;SDS011;64252;51.094;13.714;2023-06-22T04:43:30;14.80;;;8.32;;
75655;SDS011;64252;51.094;13.714;2023-06-22T04:45:56;15.63;;;10.02;;
75655;SDS011;64252;51.094;13.714;2023-06-22T04:48:28;17.33;;;8.35;;
75655;SDS011;64252;51.094;13.714;2023-06-22T04:51:01;10.80;;;8.38;;
75655;SDS011;64252;51.094;13.714;2023-06-22T04:53:30;9.32;;;7.50;;
75655;SDS011;64252;51.094;13.714;2023-06-22T04:55:56;12.52;;;8.05;;
75655;SDS011;64252;51.094;13.714;2023-06-22T04:58:22;10.10;;;8.00;;
75655;SDS011;64252;51.094;13.714;2023-06-22T05:00:47;10.60;;;7.78;;
75655;SDS011;64252;51.094;13.714;2023-06-22T05:03:13;9.23;;;7.60;;
75655;SDS011;64252;51.094;13.714;2023-06-22T05:05:38;10.93;;;7.50;;
75655;SDS011;64252;51.094;13.714;2023-06-22T05:08:04;10.00;;;7.50;;
75655;SDS011;64252;51.094;13.714;2023-06-22T05:10:32;13.85;;;8.27;;
75655;SDS011;64252;51.094;13.714;2023-06-22T05:12:58;10.18;;;7.63;;
75655;SDS011;64252;51.094;13.714;2023-06-22T05:15:24;9.50;;;7.00;;
75655;SDS011;64252;51.094;13.714;2023-06-22T05:17:53;9.05;;;6.57;;
75655;SDS011;64252;51.094;13.714;2023-06-22T05:20:18;9.35;;;7.18;;
75655;SDS011;64252;51.094;13.714;2023-06-22T05:22:44;9.70;;;6.97;;
75655;SDS011;64252;51.094;13.714;2023-06-22T05:25:10;8.77;;;7.13;;
75655;SDS011;64252;51.094;13.714;2023-06-22T05:27:36;11.10;;;7.78;;
75655;SDS011;64252;51.094;13.714;2023-06-22T05:30:06;9.48;;;6.93;;
75655;SDS011;64252;51.094;13.714;2023-06-22T05:32:32;8.60;;;7.30;;
75655;SDS011;64252;51.094;13.714;2023-06-22T05:34:58;10.77;;;6.20;;
75655;SDS011;64252;51.094;13.714;2023-06-22T05:37:24;7.90;;;6.53;;
75655;SDS011;64252;51.094;13.714;2023-06-22T05:39:51;7.38;;;6.40;;
75655;SDS011;64252;51.094;13.714;2023-06-22T05:42:17;10.60;;;6.95;;
75655;SDS011;64252;51.094;13.714;2023-06-22T05:44:42;9.52;;;7.38;;
75655;SDS011;64252;51.094;13.714;2023-06-22T05:47:08;7.97;;;6.10;;
75655;SDS011;64252;51.094;13.714;2023-06-22T05:49:33;9.13;;;7.72;;
75655;SDS011;64252;51.094;13.714;2023-06-22T05:51:59;9.60;;;6.90;;
75655;SDS011;64252;51.094;13.714;2023-06-22T05:54:27;8.30;;;7.05;;
75655;SDS011;64252;51.094;13.714;2023-06-22T05:56:53;9.30;;;7.30;;
75655;SDS011;64252;51.094;13.714;2023-06-22T05:59:19;10.27;;;7.07;;
75655;SDS011;64252;51.094;13.714;2023-06-22T06:01:44;9.30;;;6.53;;
75655;SDS011;64252;51.094;13.714;2023-06-22T06:04:11;10.13;;;7.00;;
75655;SDS011;64252;51.094;13.714;2023-06-22T06:06:36;10.10;;;7.45;;
75655;SDS011;64252;51.094;13.714;2023-06-22T06:09:03;8.60;;;6.80;;
75655;SDS011;64252;51.094;13.714;2023-06-22T06:11:29;9.35;;;7.20;;
75655;SDS011;64252;51.094;13.714;2023-06-22T06:13:55;9.82;;;6.70;;
75655;SDS011;64252;51.094;13.714;2023-06-22T06:16:21;10.25;;;6.60;;
75655;SDS011;64252;51.094;13.714;2023-06-22T06:18:47;10.80;;;6.90;;
75655;SDS011;64252;51.094;13.714;2023-06-22T06:21:14;7.75;;;6.32;;
75655;SDS011;64252;51.094;13.714;2023-06-22T06:23:40;10.48;;;6.55;;
75655;SDS011;64252;51.094;13.714;2023-06-22T06:26:06;8.85;;;6.38;;
75655;SDS011;64252;51.094;13.714;2023-06-22T06:28:32;7.70;;;6.85;;
75655;SDS011;64252;51.094;13.714;2023-06-22T06:30:58;9.98;;;7.10;;
75655;SDS011;64252;51.094;13.714;2023-06-22T06:33:23;8.65;;;7.05;;
75655;SDS011;64252;51.094;13.714;2023-06-22T06:35:49;9.30;;;7.05;;
75655;SDS011;64252;51.094;13.714;2023-06-22T06:38:15;9.80;;;6.85;;
75655;SDS011;64252;51.094;13.714;2023-06-22T06:40:40;9.65;;;6.65;;
75655;SDS011;64252;51.094;13.714;2023-06-22T06:43:06;8.43;;;7.07;;
75655;SDS011;64252;51.094;13.714;2023-06-22T06:45:32;11.20;;;7.10;;
75655;SDS011;64252;51.094;13.714;2023-06-22T06:47:59;10.20;;;6.57;;
75655;SDS011;64252;51.094;13.714;2023-06-22T06:50:25;8.27;;;6.90;;
75655;SDS011;64252;51.094;13.714;2023-06-22T06:52:51;9.70;;;7.50;;
75655;SDS011;64252;51.094;13.714;2023-06-22T06:55:17;11.18;;;6.88;;
75655;SDS011;64252;51.094;13.714;2023-06-22T06:57:44;8.63;;;6.70;;
75655;SDS011;64252;51.094;13.714;2023-06-22T07:00:13;9.90;;;6.35;;
75655;SDS011;64252;51.094;13.714;2023-06-22T07:02:41;8.52;;;6.70;;
75655;SDS011;64252;51.094;13.714;2023-06-22T07:05:08;7.78;;;6.07;;
75655;SDS011;64252;51.094;13.714;2023-06-22T07:07:34;9.38;;;6.35;;
75655;SDS011;64252;51.094;13.714;2023-06-22T07:10:00;9.35;;;5.95;;
75655;SDS011;64252;51.094;13.714;2023-06-22T07:12:26;9.55;;;6.15;;
75655;SDS011;64252;51.094;13.714;2023-06-22T07:14:52;7.68;;;5.93;;
75655;SDS011;64252;51.094;13.714;2023-06-22T07:17:18;7.72;;;6.38;;
75655;SDS011;64252;51.094;13.714;2023-06-22T07:19:44;7.72;;;5.50;;
75655;SDS011;64252;51.094;13.714;2023-06-22T07:22:10;7.85;;;6.03;;
75655;SDS011;64252;51.094;13.714;2023-06-22T07:24:36;9.52;;;7.00;;
75655;SDS011;64252;51.094;13.714;2023-06-22T07:27:02;7.75;;;6.25;;
75655;SDS011;64252;51.094;13.714;2023-06-22T07:29:29;11.02;;;7.18;;
75655;SDS011;64252;51.094;13.714;2023-06-22T07:31:54;7.75;;;6.28;;
75655;SDS011;64252;51.094;13.714;2023-06-22T07:34:21;7.65;;;6.18;;
75655;SDS011;64252;51.094;13.714;2023-06-22T07:36:47;11.85;;;7.28;;
75655;SDS011;64252;51.094;13.714;2023-06-22T07:39:13;7.50;;;6.57;;
75655;SDS011;64252;51.094;13.714;2023-06-22T07:41:40;10.40;;;6.90;;
75655;SDS011;64252;51.094;13.714;2023-06-22T07:44:06;8.48;;;6.53;;
75655;SDS011;64252;51.094;13.714;2023-06-22T07:46:32;7.82;;;6.05;;
75655;SDS011;64252;51.094;13.714;2023-06-22T07:48:58;7.85;;;6.40;;
75655;SDS011;64252;51.094;13.714;2023-06-22T07:51:24;9.23;;;6.68;;
75655;SDS011;64252;51.094;13.714;2023-06-22T07:53:50;7.47;;;6.68;;
75655;SDS011;64252;51.094;13.714;2023-06-22T07:56:16;8.95;;;6.40;;
75655;SDS011;64252;51.094;13.714;2023-06-22T07:58:45;8.50;;;5.88;;
75655;SDS011;64252;51.094;13.714;2023-06-22T08:01:12;7.65;;;6.25;;
75655;SDS011;64252;51.094;13.714;2023-06-22T08:03:41;7.95;;;6.43;;
75655;SDS011;64252;51.094;13.714;2023-06-22T08:06:08;8.43;;;6.30;;
75655;SDS011;64252;51.094;13.714;2023-06-22T08:08:34;8.10;;;6.38;;
75655;SDS011;64252;51.094;13.714;2023-06-22T08:11:01;9.40;;;6.03;;
75655;SDS011;64252;51.094;13.714;2023-06-22T08:13:26;9.88;;;7.03;;
75655;SDS011;64252;51.094;13.714;2023-06-22T08:15:52;8.13;;;6.80;;
75655;SDS011;64252;51.094;13.714;2023-06-22T08:18:17;8.63;;;6.88;;
75655;SDS011;64252;51.094;13.714;2023-06-22T08:20:43;7.57;;;6.78;;
75655;SDS011;64252;51.094;13.714;2023-06-22T08:23:08;8.60;;;6.75;;
75655;SDS011;64252;51.094;13.714;2023-06-22T08:25:34;7.90;;;6.43;;
75655;SDS011;64252;51.094;13.714;2023-06-22T08:28:03;10.32;;;7.25;;
75655;SDS011;64252;51.094;13.714;2023-06-22T08:30:29;7.60;;;6.80;;
75655;SDS011;64252;51.094;13.714;2023-06-22T08:32:55;10.15;;;7.28;;
75655;SDS011;64252;51.094;13.714;2023-06-22T08:35:23;10.63;;;6.22;;
75655;SDS011;64252;51.094;13.714;2023-06-22T08:37:49;8.00;;;6.50;;
75655;SDS011;64252;51.094;13.714;2023-06-22T08:40:19;8.15;;;6.18;;
75655;SDS011;64252;51.094;13.714;2023-06-22T08:42:45;9.68;;;6.40;;
75655;SDS011;64252;51.094;13.714;2023-06-22T08:45:12;7.38;;;5.68;;
75655;SDS011;64252;51.094;13.714;2023-06-22T08:47:38;6.82;;;5.63;;
75655;SDS011;64252;51.094;13.714;2023-06-22T08:50:04;7.43;;;5.60;;
75655;SDS011;64252;51.094;13.714;2023-06-22T08:52:31;8.70;;;5.55;;
75655;SDS011;64252;51.094;13.714;2023-06-22T08:54:57;8.90;;;5.43;;
75655;SDS011;64252;51.094;13.714;2023-06-22T08:57:26;7.32;;;5.57;;
75655;SDS011;64252;51.094;13.714;2023-06-22T08:59:52;7.45;;;5.50;;
75655;SDS011;64252;51.094;13.714;2023-06-22T09:02:18;6.53;;;5.13;;
75655;SDS011;64252;51.094;13.714;2023-06-22T09:04:45;7.45;;;5.63;;
75655;SDS011;64252;51.094;13.714;2023-06-22T09:07:11;6.40;;;5.15;;
75655;SDS011;64252;51.094;13.714;2023-06-22T09:09:37;8.52;;;5.40;;
75655;SDS011;64252;51.094;13.714;2023-06-22T09:12:03;6.70;;;5.20;;
75655;SDS011;64252;51.094;13.714;2023-06-22T09:14:29;7.65;;;5.53;;
75655;SDS011;64252;51.094;13.714;2023-06-22T09:16:54;6.30;;;5.13;;
75655;SDS011;64252;51.094;13.714;2023-06-22T09:19:20;7.30;;;4.97;;
75655;SDS011;64252;51.094;13.714;2023-06-22T09:21:46;8.00;;;5.43;;
75655;SDS011;64252;51.094;13.714;2023-06-22T09:24:11;6.18;;;4.50;;
75655;SDS011;64252;51.094;13.714;2023-06-22T09:26:37;6.72;;;5.28;;
75655;SDS011;64252;51.094;13.714;2023-06-22T09:29:04;5.95;;;4.88;;
75655;SDS011;64252;51.094;13.714;2023-06-22T09:31:31;6.35;;;5.05;;
75655;SDS011;64252;51.094;13.714;2023-06-22T09:33:56;6.32;;;5.15;;
75655;SDS011;64252;51.094;13.714;2023-06-22T09:36:22;6.13;;;4.78;;
75655;SDS011;64252;51.094;13.714;2023-06-22T09:38:47;9.07;;;5.43;;
75655;SDS011;64252;51.094;13.714;2023-06-22T09:41:14;6.72;;;4.53;;
75655;SDS011;64252;51.094;13.714;2023-06-22T09:43:39;6.22;;;5.07;;
75655;SDS011;64252;51.094;13.714;2023-06-22T09:46:05;6.55;;;5.45;;
75655;SDS011;64252;51.094;13.714;2023-06-22T09:48:32;7.15;;;5.13;;
75655;SDS011;64252;51.094;13.714;2023-06-22T09:50:57;6.70;;;5.50;;
75655;SDS011;64252;51.094;13.714;2023-06-22T09:53:23;8.73;;;6.07;;
75655;SDS011;64252;51.094;13.714;2023-06-22T09:55:48;7.18;;;6.00;;
75655;SDS011;64252;51.094;13.714;2023-06-22T09:58:14;8.10;;;5.97;;
75655;SDS011;64252;51.094;13.714;2023-06-22T10:00:39;9.00;;;6.32;;
75655;SDS011;64252;51.094;13.714;2023-06-22T10:03:06;8.45;;;5.93;;
75655;SDS011;64252;51.094;13.714;2023-06-22T10:05:32;9.20;;;6.13;;
75655;SDS011;64252;51.094;13.714;2023-06-22T10:07:58;7.63;;;5.85;;
75655;SDS011;64252;51.094;13.714;2023-06-22T10:10:23;8.70;;;6.20;;
75655;SDS011;64252;51.094;13.714;2023-06-22T10:12:56;8.48;;;6.68;;
75655;SDS011;64252;51.094;13.714;2023-06-22T10:15:22;9.88;;;6.03;;
75655;SDS011;64252;51.094;13.714;2023-06-22T10:17:48;10.85;;;6.47;;
75655;SDS011;64252;51.094;13.714;2023-06-22T10:20:14;8.65;;;6.63;;
75655;SDS011;64252;51.094;13.714;2023-06-22T10:22:43;8.68;;;6.38;;
75655;SDS011;64252;51.094;13.714;2023-06-22T10:25:10;11.05;;;6.28;;
75655;SDS011;64252;51.094;13.714;2023-06-22T10:27:37;8.90;;;6.18;;
75655;SDS011;64252;51.094;13.714;2023-06-22T10:30:10;8.10;;;7.07;;
75655;SDS011;64252;51.094;13.714;2023-06-22T10:32:40;8.73;;;6.53;;
75655;SDS011;64252;51.094;13.714;2023-06-22T10:35:07;9.75;;;6.63;;
75655;SDS011;64252;51.094;13.714;2023-06-22T10:37:33;9.15;;;6.22;;
75655;SDS011;64252;51.094;13.714;2023-06-22T10:39:59;8.73;;;6.20;;
75655;SDS011;64252;51.094;13.714;2023-06-22T10:42:24;8.15;;;6.30;;
75655;SDS011;64252;51.094;13.714;2023-06-22T10:44:50;9.23;;;6.10;;
75655;SDS011;64252;51.094;13.714;2023-06-22T10:47:15;6.90;;;6.20;;
75655;SDS011;64252;51.094;13.714;2023-06-22T10:49:41;8.20;;;5.88;;
75655;SDS011;64252;51.094;13.714;2023-06-22T10:52:08;7.43;;;6.20;;
75655;SDS011;64252;51.094;13.714;2023-06-22T10:54:34;8.50;;;6.07;;
75655;SDS011;64252;51.094;13.714;2023-06-22T10:57:01;10.30;;;7.20;;
75655;SDS011;64252;51.094;13.714;2023-06-22T10:59:30;8.80;;;7.05;;
75655;SDS011;64252;51.094;13.714;2023-06-22T11:01:55;8.52;;;6.65;;
75655;SDS011;64252;51.094;13.714;2023-06-22T11:04:22;6.78;;;5.88;;
75655;SDS011;64252;51.094;13.714;2023-06-22T11:06:48;10.55;;;7.13;;
75655;SDS011;64252;51.094;13.714;2023-06-22T11:09:14;9.38;;;6.47;;
75655;SDS011;64252;51.094;13.714;2023-06-22T11:11:46;11.05;;;6.68;;
75655;SDS011;64252;51.094;13.714;2023-06-22T11:14:12;11.98;;;7.30;;
75655;SDS011;64252;51.094;13.714;2023-06-22T11:16:38;7.65;;;6.47;;
75655;SDS011;64252;51.094;13.714;2023-06-22T11:19:04;7.80;;;6.47;;
75655;SDS011;64252;51.094;13.714;2023-06-22T11:21:30;9.27;;;6.10;;
75655;SDS011;64252;51.094;13.714;2023-06-22T11:23:56;8.35;;;6.28;;
75655;SDS011;64252;51.094;13.714;2023-06-22T11:26:22;9.18;;;6.15;;
75655;SDS011;64252;51.094;13.714;2023-06-22T11:28:48;7.32;;;6.38;;
75655;SDS011;64252;51.094;13.714;2023-06-22T11:31:14;8.68;;;6.80;;
75655;SDS011;64252;51.094;13.714;2023-06-22T11:33:39;8.30;;;6.13;;
75655;SDS011;64252;51.094;13.714;2023-06-22T11:36:05;7.63;;;6.13;;
75655;SDS011;64252;51.094;13.714;2023-06-22T11:38:31;7.47;;;5.97;;
75655;SDS011;64252;51.094;13.714;2023-06-22T11:41:00;8.20;;;5.70;;
75655;SDS011;64252;51.094;13.714;2023-06-22T11:43:25;7.72;;;6.13;;
75655;SDS011;64252;51.094;13.714;2023-06-22T11:45:51;9.60;;;6.53;;
75655;SDS011;64252;51.094;13.714;2023-06-22T11:48:17;11.55;;;6.25;;
75655;SDS011;64252;51.094;13.714;2023-06-22T11:50:42;10.35;;;6.25;;
75655;SDS011;64252;51.094;13.714;2023-06-22T11:53:08;10.43;;;6.68;;
75655;SDS011;64252;51.094;13.714;2023-06-22T11:55:33;12.48;;;7.03;;
75655;SDS011;64252;51.094;13.714;2023-06-22T11:57:59;7.70;;;6.25;;
75655;SDS011;64252;51.094;13.714;2023-06-22T12:00:28;9.10;;;6.18;;
75655;SDS011;64252;51.094;13.714;2023-06-22T12:02:55;8.70;;;6.18;;
75655;SDS011;64252;51.094;13.714;2023-06-22T12:05:21;7.05;;;6.18;;
75655;SDS011;64252;51.094;13.714;2023-06-22T12:07:47;65.75;;;13.82;;
75655;SDS011;64252;51.094;13.714;2023-06-22T12:10:14;17.10;;;7.65;;
75655;SDS011;64252;51.094;13.714;2023-06-22T12:12:40;10.48;;;6.40;;
75655;SDS011;64252;51.094;13.714;2023-06-22T12:15:06;9.70;;;6.10;;
75655;SDS011;64252;51.094;13.714;2023-06-22T12:17:33;7.80;;;6.25;;
75655;SDS011;64252;51.094;13.714;2023-06-22T12:19:59;7.85;;;6.55;;
75655;SDS011;64252;51.094;13.714;2023-06-22T12:22:25;7.80;;;6.47;;
75655;SDS011;64252;51.094;13.714;2023-06-22T12:24:50;8.25;;;6.72;;
75655;SDS011;64252;51.094;13.714;2023-06-22T12:27:16;8.40;;;6.20;;
75655;SDS011;64252;51.094;13.714;2023-06-22T12:29:45;10.13;;;6.57;;
75655;SDS011;64252;51.094;13.714;2023-06-22T12:32:11;23.98;;;6.78;;
75655;SDS011;64252;51.094;13.714;2023-06-22T12:34:39;9.05;;;6.68;;
75655;SDS011;64252;51.094;13.714;2023-06-22T12:37:05;9.20;;;6.43;;
75655;SDS011;64252;51.094;13.714;2023-06-22T12:39:35;7.72;;;6.30;;
75655;SDS011;64252;51.094;13.714;2023-06-22T12:42:00;10.93;;;6.18;;
75655;SDS011;64252;51.094;13.714;2023-06-22T12:44:26;7.93;;;6.53;;
75655;SDS011;64252;51.094;13.714;2023-06-22T12:46:52;7.82;;;6.18;;
75655;SDS011;64252;51.094;13.714;2023-06-22T12:49:17;7.45;;;6.43;;
75655;SDS011;64252;51.094;13.714;2023-06-22T12:51:43;7.53;;;5.93;;
75655;SDS011;64252;51.094;13.714;2023-06-22T12:54:09;11.68;;;6.05;;
75655;SDS011;64252;51.094;13.714;2023-06-22T12:56:36;8.93;;;6.45;;
75655;SDS011;64252;51.094;13.714;2023-06-22T12:59:03;8.32;;;6.50;;
75655;SDS011;64252;51.094;13.714;2023-06-22T13:01:29;7.88;;;6.18;;
75655;SDS011;64252;51.094;13.714;2023-06-22T13:03:56;8.05;;;6.60;;
75655;SDS011;64252;51.094;13.714;2023-06-22T13:06:22;9.40;;;6.57;;
75655;SDS011;64252;51.094;13.714;2023-06-22T13:08:47;10.38;;;6.80;;
75655;SDS011;64252;51.094;13.714;2023-06-22T13:11:16;7.38;;;6.32;;
75655;SDS011;64252;51.094;13.714;2023-06-22T13:13:41;7.28;;;5.88;;
75655;SDS011;64252;51.094;13.714;2023-06-22T13:16:07;8.70;;;6.57;;
75655;SDS011;64252;51.094;13.714;2023-06-22T13:18:33;8.05;;;6.50;;
75655;SDS011;64252;51.094;13.714;2023-06-22T13:21:01;11.00;;;6.22;;
75655;SDS011;64252;51.094;13.714;2023-06-22T13:23:30;10.18;;;6.32;;
75655;SDS011;64252;51.094;13.714;2023-06-22T13:25:56;11.80;;;6.38;;
75655;SDS011;64252;51.094;13.714;2023-06-22T13:28:22;9.18;;;6.72;;
75655;SDS011;64252;51.094;13.714;2023-06-22T13:30:51;7.82;;;6.13;;
75655;SDS011;64252;51.094;13.714;2023-06-22T13:33:16;56.70;;;9.20;;
75655;SDS011;64252;51.094;13.714;2023-06-22T13:35:42;11.57;;;6.50;;
75655;SDS011;64252;51.094;13.714;2023-06-22T13:38:08;9.10;;;6.55;;
75655;SDS011;64252;51.094;13.714;2023-06-22T13:40:36;12.68;;;6.35;;
75655;SDS011;64252;51.094;13.714;2023-06-22T13:43:03;10.70;;;6.65;;
75655;SDS011;64252;51.094;13.714;2023-06-22T13:45:29;8.48;;;6.28;;
75655;SDS011;64252;51.094;13.714;2023-06-22T13:47:55;12.82;;;6.70;;
75655;SDS011;64252;51.094;13.714;2023-06-22T13:50:21;10.80;;;7.03;;
75655;SDS011;64252;51.094;13.714;2023-06-22T13:52:46;9.13;;;6.45;;
75655;SDS011;64252;51.094;13.714;2023-06-22T13:55:12;10.05;;;6.80;;
75655;SDS011;64252;51.094;13.714;2023-06-22T13:57:39;11.18;;;6.80;;
75655;SDS011;64252;51.094;13.714;2023-06-22T14:00:06;9.70;;;6.30;;
75655;SDS011;64252;51.094;13.714;2023-06-22T14:02:39;9.70;;;6.55;;
75655;SDS011;64252;51.094;13.714;2023-06-22T14:05:06;10.27;;;6.80;;
75655;SDS011;64252;51.094;13.714;2023-06-22T14:07:32;9.50;;;6.80;;
75655;SDS011;64252;51.094;13.714;2023-06-22T14:10:00;8.13;;;6.68;;
75655;SDS011;64252;51.094;13.714;2023-06-22T14:12:26;7.82;;;6.05;;
75655;SDS011;64252;51.094;13.714;2023-06-22T14:14:52;11.18;;;6.25;;
75655;SDS011;64252;51.094;13.714;2023-06-22T14:17:17;7.28;;;5.97;;
75655;SDS011;64252;51.094;13.714;2023-06-22T14:19:49;7.75;;;6.22;;
75655;SDS011;64252;51.094;13.714;2023-06-22T14:22:18;8.05;;;6.32;;
75655;SDS011;64252;51.094;13.714;2023-06-22T14:24:45;8.10;;;6.13;;
75655;SDS011;64252;51.094;13.714;2023-06-22T14:27:11;8.35;;;6.47;;
75655;SDS011;64252;51.094;13.714;2023-06-22T14:29:37;7.40;;;6.47;;
75655;SDS011;64252;51.094;13.714;2023-06-22T14:32:03;8.98;;;6.15;;
75655;SDS011;64252;51.094;13.714;2023-06-22T14:34:31;9.35;;;6.70;;
75655;SDS011;64252;51.094;13.714;2023-06-22T14:36:57;8.70;;;6.78;;
75655;SDS011;64252;51.094;13.714;2023-06-22T14:39:23;9.55;;;6.63;;
75655;SDS011;64252;51.094;13.714;2023-06-22T14:41:49;10.38;;;7.10;;
75655;SDS011;64252;51.094;13.714;2023-06-22T14:44:15;9.80;;;6.45;;